sensor_id;sensor_type;location;lat;lon;timestamp;temperature;humidity
9446;DHT22;4761;49.490;10.908;2024-02-23T00:01:25;16.90;56.10
9446;DHT22;4761;49.490;10.908;2024-02-23T00:03:51;16.90;56.00
9446;DHT22;4761;49.490;10.908;2024-02-23T00:06:17;16.90;55.90
9446;DHT22;4761;49.490;10.908;2024-02-23T00:08:43;16.90;55.80
9446;DHT22;4761;49.490;10.908;2024-02-23T00:11:09;16.90;55.70
9446;DHT22;4761;49.490;10.908;2024-02-23T00:13:35;16.90;55.70
9446;DHT22;4761;49.490;10.908;2024-02-23T00:16:00;16.90;55.60
9446;DHT22;4761;49.490;10.908;2024-02-23T00:18:26;16.90;55.50
9446;DHT22;4761;49.490;10.908;2024-02-23T00:20:52;16.90;55.40
9446;DHT22;4761;49.490;10.908;2024-02-23T00:23:17;16.90;55.40
9446;DHT22;4761;49.490;10.908;2024-02-23T00:25:44;16.90;55.30
9446;DHT22;4761;49.490;10.908;2024-02-23T00:28:10;16.90;55.20
9446;DHT22;4761;49.490;10.908;2024-02-23T00:30:35;16.90;55.20
9446;DHT22;4761;49.490;10.908;2024-02-23T00:33:01;16.90;55.10
9446;DHT22;4761;49.490;10.908;2024-02-23T00:35:26;16.90;55.00
9446;DHT22;4761;49.490;10.908;2024-02-23T00:37:52;16.90;54.80
9446;DHT22;4761;49.490;10.908;2024-02-23T00:40:18;16.90;54.80
9446;DHT22;4761;49.490;10.908;2024-02-23T00:42:43;16.90;54.70
9446;DHT22;4761;49.490;10.908;2024-02-23T00:45:09;16.90;54.60
9446;DHT22;4761;49.490;10.908;2024-02-23T00:47:34;16.90;54.50
9446;DHT22;4761;49.490;10.908;2024-02-23T00:50:01;16.90;54.40
9446;DHT22;4761;49.490;10.908;2024-02-23T00:52:27;16.90;54.30
9446;DHT22;4761;49.490;10.908;2024-02-23T00:54:52;16.90;54.30
9446;DHT22;4761;49.490;10.908;2024-02-23T00:57:18;16.90;54.20
9446;DHT22;4761;49.490;10.908;2024-02-23T00:59:51;16.90;54.20
9446;DHT22;4761;49.490;10.908;2024-02-23T01:02:16;16.90;54.10
9446;DHT22;4761;49.490;10.908;2024-02-23T01:04:42;16.90;54.10
9446;DHT22;4761;49.490;10.908;2024-02-23T01:07:07;16.90;53.90
9446;DHT22;4761;49.490;10.908;2024-02-23T01:09:33;16.90;53.80
9446;DHT22;4761;49.490;10.908;2024-02-23T01:11:59;16.90;53.70
9446;DHT22;4761;49.490;10.908;2024-02-23T01:14:25;16.90;53.50
9446;DHT22;4761;49.490;10.908;2024-02-23T01:16:50;16.90;53.40
9446;DHT22;4761;49.490;10.908;2024-02-23T01:19:16;16.90;53.40
9446;DHT22;4761;49.490;10.908;2024-02-23T01:21:41;16.90;53.40
9446;DHT22;4761;49.490;10.908;2024-02-23T01:24:07;16.90;53.30
9446;DHT22;4761;49.490;10.908;2024-02-23T01:26:33;16.90;53.20
9446;DHT22;4761;49.490;10.908;2024-02-23T01:28:58;16.90;53.00
9446;DHT22;4761;49.490;10.908;2024-02-23T01:31:24;16.90;53.00
9446;DHT22;4761;49.490;10.908;2024-02-23T01:33:49;16.90;53.00
9446;DHT22;4761;49.490;10.908;2024-02-23T01:36:15;16.90;53.00
9446;DHT22;4761;49.490;10.908;2024-02-23T01:38:41;16.90;53.00
9446;DHT22;4761;49.490;10.908;2024-02-23T01:41:08;16.90;52.90
9446;DHT22;4761;49.490;10.908;2024-02-23T01:43:33;16.90;52.90
9446;DHT22;4761;49.490;10.908;2024-02-23T01:45:59;16.90;52.70
9446;DHT22;4761;49.490;10.908;2024-02-23T01:48:25;16.90;52.60
9446;DHT22;4761;49.490;10.908;2024-02-23T01:50:51;16.90;52.50
9446;DHT22;4761;49.490;10.908;2024-02-23T01:53:18;16.90;52.50
9446;DHT22;4761;49.490;10.908;2024-02-23T01:55:45;16.90;52.30
9446;DHT22;4761;49.490;10.908;2024-02-23T01:58:11;16.90;52.30
9446;DHT22;4761;49.490;10.908;2024-02-23T02:00:37;16.80;52.10
9446;DHT22;4761;49.490;10.908;2024-02-23T02:03:03;16.90;52.10
9446;DHT22;4761;49.490;10.908;2024-02-23T02:05:28;16.90;52.00
9446;DHT22;4761;49.490;10.908;2024-02-23T02:07:55;16.90;51.90
9446;DHT22;4761;49.490;10.908;2024-02-23T02:10:24;16.90;51.80
9446;DHT22;4761;49.490;10.908;2024-02-23T02:12:50;16.90;51.80
9446;DHT22;4761;49.490;10.908;2024-02-23T02:15:16;16.90;51.80
9446;DHT22;4761;49.490;10.908;2024-02-23T02:17:42;16.90;51.70
9446;DHT22;4761;49.490;10.908;2024-02-23T02:20:11;16.90;51.70
9446;DHT22;4761;49.490;10.908;2024-02-23T02:22:37;16.90;51.60
9446;DHT22;4761;49.490;10.908;2024-02-23T02:25:02;16.90;51.50
9446;DHT22;4761;49.490;10.908;2024-02-23T02:27:28;16.90;51.50
9446;DHT22;4761;49.490;10.908;2024-02-23T02:29:54;16.80;51.30
9446;DHT22;4761;49.490;10.908;2024-02-23T02:32:19;16.90;51.40
9446;DHT22;4761;49.490;10.908;2024-02-23T02:34:45;16.80;51.20
9446;DHT22;4761;49.490;10.908;2024-02-23T02:37:10;16.90;51.20
9446;DHT22;4761;49.490;10.908;2024-02-23T02:39:36;16.80;51.20
9446;DHT22;4761;49.490;10.908;2024-02-23T02:42:01;16.90;51.10
9446;DHT22;4761;49.490;10.908;2024-02-23T02:44:27;16.90;51.10
9446;DHT22;4761;49.490;10.908;2024-02-23T02:46:58;16.90;50.90
9446;DHT22;4761;49.490;10.908;2024-02-23T02:49:24;16.90;50.80
9446;DHT22;4761;49.490;10.908;2024-02-23T02:51:50;16.90;50.70
9446;DHT22;4761;49.490;10.908;2024-02-23T02:54:15;16.90;50.70
9446;DHT22;4761;49.490;10.908;2024-02-23T02:56:45;16.90;50.60
9446;DHT22;4761;49.490;10.908;2024-02-23T02:59:12;16.90;50.50
9446;DHT22;4761;49.490;10.908;2024-02-23T03:01:38;16.90;50.60
9446;DHT22;4761;49.490;10.908;2024-02-23T03:04:04;16.90;50.50
9446;DHT22;4761;49.490;10.908;2024-02-23T03:06:29;16.90;50.50
9446;DHT22;4761;49.490;10.908;2024-02-23T03:08:55;16.90;50.50
9446;DHT22;4761;49.490;10.908;2024-02-23T03:11:20;16.90;50.40
9446;DHT22;4761;49.490;10.908;2024-02-23T03:13:46;16.90;50.30
9446;DHT22;4761;49.490;10.908;2024-02-23T03:16:18;16.90;50.20
9446;DHT22;4761;49.490;10.908;2024-02-23T03:18:44;16.90;50.10
9446;DHT22;4761;49.490;10.908;2024-02-23T03:21:10;16.90;50.10
9446;DHT22;4761;49.490;10.908;2024-02-23T03:23:36;16.80;49.90
9446;DHT22;4761;49.490;10.908;2024-02-23T03:26:01;16.90;49.90
9446;DHT22;4761;49.490;10.908;2024-02-23T03:28:27;16.90;49.80
9446;DHT22;4761;49.490;10.908;2024-02-23T03:30:53;16.90;49.80
9446;DHT22;4761;49.490;10.908;2024-02-23T03:33:18;16.80;49.70
9446;DHT22;4761;49.490;10.908;2024-02-23T03:35:44;16.90;49.70
9446;DHT22;4761;49.490;10.908;2024-02-23T03:38:09;16.90;49.60
9446;DHT22;4761;49.490;10.908;2024-02-23T03:40:35;16.90;49.60
9446;DHT22;4761;49.490;10.908;2024-02-23T03:43:01;16.90;49.60
9446;DHT22;4761;49.490;10.908;2024-02-23T03:45:27;16.90;49.50
9446;DHT22;4761;49.490;10.908;2024-02-23T03:47:53;16.90;49.40
9446;DHT22;4761;49.490;10.908;2024-02-23T03:50:19;16.90;49.20
9446;DHT22;4761;49.490;10.908;2024-02-23T03:52:44;16.90;49.20
9446;DHT22;4761;49.490;10.908;2024-02-23T03:55:10;16.90;49.20
9446;DHT22;4761;49.490;10.908;2024-02-23T03:57:36;16.80;49.10
9446;DHT22;4761;49.490;10.908;2024-02-23T04:00:02;16.90;49.20
9446;DHT22;4761;49.490;10.908;2024-02-23T04:02:28;16.80;49.00
9446;DHT22;4761;49.490;10.908;2024-02-23T04:04:53;16.90;49.10
9446;DHT22;4761;49.490;10.908;2024-02-23T04:07:19;16.80;49.00
9446;DHT22;4761;49.490;10.908;2024-02-23T04:09:45;16.80;48.90
9446;DHT22;4761;49.490;10.908;2024-02-23T04:12:10;16.80;48.90
9446;DHT22;4761;49.490;10.908;2024-02-23T04:14:36;16.80;48.90
9446;DHT22;4761;49.490;10.908;2024-02-23T04:17:04;16.90;49.00
9446;DHT22;4761;49.490;10.908;2024-02-23T04:19:30;16.80;48.80
9446;DHT22;4761;49.490;10.908;2024-02-23T04:21:56;16.90;48.90
9446;DHT22;4761;49.490;10.908;2024-02-23T04:24:21;16.80;48.70
9446;DHT22;4761;49.490;10.908;2024-02-23T04:26:47;16.80;48.70
9446;DHT22;4761;49.490;10.908;2024-02-23T04:29:12;16.90;48.70
9446;DHT22;4761;49.490;10.908;2024-02-23T04:31:38;16.90;48.70
9446;DHT22;4761;49.490;10.908;2024-02-23T04:34:04;16.80;48.50
9446;DHT22;4761;49.490;10.908;2024-02-23T04:36:29;16.90;48.40
9446;DHT22;4761;49.490;10.908;2024-02-23T04:38:55;16.80;48.30
9446;DHT22;4761;49.490;10.908;2024-02-23T04:41:21;16.80;48.20
9446;DHT22;4761;49.490;10.908;2024-02-23T04:43:47;16.80;48.20
9446;DHT22;4761;49.490;10.908;2024-02-23T04:46:13;16.80;48.20
9446;DHT22;4761;49.490;10.908;2024-02-23T04:48:38;16.80;48.10
9446;DHT22;4761;49.490;10.908;2024-02-23T04:51:04;16.80;48.10
9446;DHT22;4761;49.490;10.908;2024-02-23T04:53:30;16.80;48.20
9446;DHT22;4761;49.490;10.908;2024-02-23T04:55:56;16.80;48.10
9446;DHT22;4761;49.490;10.908;2024-02-23T04:58:21;16.80;48.00
9446;DHT22;4761;49.490;10.908;2024-02-23T05:00:47;16.80;47.90
9446;DHT22;4761;49.490;10.908;2024-02-23T05:03:13;16.80;47.90
9446;DHT22;4761;49.490;10.908;2024-02-23T05:05:39;16.80;47.80
9446;DHT22;4761;49.490;10.908;2024-02-23T05:08:05;16.80;47.70
9446;DHT22;4761;49.490;10.908;2024-02-23T05:10:30;16.90;47.80
9446;DHT22;4761;49.490;10.908;2024-02-23T05:12:56;16.80;47.60
9446;DHT22;4761;49.490;10.908;2024-02-23T05:15:21;16.80;47.60
9446;DHT22;4761;49.490;10.908;2024-02-23T05:17:47;16.80;47.50
9446;DHT22;4761;49.490;10.908;2024-02-23T05:20:13;16.80;48.20
9446;DHT22;4761;49.490;10.908;2024-02-23T05:22:39;16.80;47.50
9446;DHT22;4761;49.490;10.908;2024-02-23T05:25:06;16.80;47.60
9446;DHT22;4761;49.490;10.908;2024-02-23T05:27:31;16.80;47.50
9446;DHT22;4761;49.490;10.908;2024-02-23T05:29:57;16.80;47.40
9446;DHT22;4761;49.490;10.908;2024-02-23T05:32:22;16.80;47.40
9446;DHT22;4761;49.490;10.908;2024-02-23T05:34:48;16.80;47.30
9446;DHT22;4761;49.490;10.908;2024-02-23T05:37:17;16.80;47.30
9446;DHT22;4761;49.490;10.908;2024-02-23T05:39:42;16.80;47.30
9446;DHT22;4761;49.490;10.908;2024-02-23T05:42:08;16.80;47.20
9446;DHT22;4761;49.490;10.908;2024-02-23T05:44:33;16.80;47.20
9446;DHT22;4761;49.490;10.908;2024-02-23T05:46:59;16.80;47.20
9446;DHT22;4761;49.490;10.908;2024-02-23T05:49:25;16.80;47.10
9446;DHT22;4761;49.490;10.908;2024-02-23T05:51:50;16.80;47.10
9446;DHT22;4761;49.490;10.908;2024-02-23T05:54:16;16.80;47.10
9446;DHT22;4761;49.490;10.908;2024-02-23T05:56:41;16.80;47.10
9446;DHT22;4761;49.490;10.908;2024-02-23T05:59:09;16.80;47.10
9446;DHT22;4761;49.490;10.908;2024-02-23T06:01:34;16.80;47.10
9446;DHT22;4761;49.490;10.908;2024-02-23T06:04:00;16.80;47.10
9446;DHT22;4761;49.490;10.908;2024-02-23T06:06:25;16.80;47.10
9446;DHT22;4761;49.490;10.908;2024-02-23T06:08:51;16.80;47.10
9446;DHT22;4761;49.490;10.908;2024-02-23T06:11:16;16.80;47.10
9446;DHT22;4761;49.490;10.908;2024-02-23T06:13:42;16.80;47.10
9446;DHT22;4761;49.490;10.908;2024-02-23T06:16:10;16.80;47.10
9446;DHT22;4761;49.490;10.908;2024-02-23T06:18:37;16.80;47.10
9446;DHT22;4761;49.490;10.908;2024-02-23T06:21:11;16.80;47.00
9446;DHT22;4761;49.490;10.908;2024-02-23T06:23:38;16.80;47.00
9446;DHT22;4761;49.490;10.908;2024-02-23T06:26:05;16.80;46.90
9446;DHT22;4761;49.490;10.908;2024-02-23T06:28:30;16.80;46.80
9446;DHT22;4761;49.490;10.908;2024-02-23T06:30:56;16.80;46.80
9446;DHT22;4761;49.490;10.908;2024-02-23T06:33:22;16.90;46.80
9446;DHT22;4761;49.490;10.908;2024-02-23T06:35:47;16.80;46.70
9446;DHT22;4761;49.490;10.908;2024-02-23T06:38:12;16.80;46.60
9446;DHT22;4761;49.490;10.908;2024-02-23T06:40:38;16.80;46.60
9446;DHT22;4761;49.490;10.908;2024-02-23T06:43:04;16.80;46.70
9446;DHT22;4761;49.490;10.908;2024-02-23T06:45:29;16.80;46.50
9446;DHT22;4761;49.490;10.908;2024-02-23T06:47:55;16.80;46.50
9446;DHT22;4761;49.490;10.908;2024-02-23T06:50:20;16.80;46.60
9446;DHT22;4761;49.490;10.908;2024-02-23T06:52:47;16.80;46.50
9446;DHT22;4761;49.490;10.908;2024-02-23T06:55:13;16.90;46.70
9446;DHT22;4761;49.490;10.908;2024-02-23T06:57:39;16.80;46.60
9446;DHT22;4761;49.490;10.908;2024-02-23T07:00:05;16.80;46.60
9446;DHT22;4761;49.490;10.908;2024-02-23T07:02:32;16.80;46.70
9446;DHT22;4761;49.490;10.908;2024-02-23T07:05:02;16.80;46.70
9446;DHT22;4761;49.490;10.908;2024-02-23T07:07:29;16.80;46.70
9446;DHT22;4761;49.490;10.908;2024-02-23T07:09:56;16.80;46.70
9446;DHT22;4761;49.490;10.908;2024-02-23T07:12:21;16.80;46.80
9446;DHT22;4761;49.490;10.908;2024-02-23T07:14:47;16.80;46.70
9446;DHT22;4761;49.490;10.908;2024-02-23T07:17:16;16.80;46.80
9446;DHT22;4761;49.490;10.908;2024-02-23T07:19:42;16.80;46.70
9446;DHT22;4761;49.490;10.908;2024-02-23T07:22:07;16.80;46.70
9446;DHT22;4761;49.490;10.908;2024-02-23T07:24:33;16.80;46.60
9446;DHT22;4761;49.490;10.908;2024-02-23T07:26:58;16.90;46.60
9446;DHT22;4761;49.490;10.908;2024-02-23T07:29:24;16.90;46.50
9446;DHT22;4761;49.490;10.908;2024-02-23T07:31:49;16.80;46.40
9446;DHT22;4761;49.490;10.908;2024-02-23T07:34:15;16.90;47.10
9446;DHT22;4761;49.490;10.908;2024-02-23T07:36:40;16.90;46.50
9446;DHT22;4761;49.490;10.908;2024-02-23T07:39:07;16.90;46.50
9446;DHT22;4761;49.490;10.908;2024-02-23T07:41:32;16.80;46.40
9446;DHT22;4761;49.490;10.908;2024-02-23T07:43:58;16.80;46.30
9446;DHT22;4761;49.490;10.908;2024-02-23T07:46:23;16.80;46.30
9446;DHT22;4761;49.490;10.908;2024-02-23T07:48:49;16.80;46.30
9446;DHT22;4761;49.490;10.908;2024-02-23T07:51:14;16.80;46.20
9446;DHT22;4761;49.490;10.908;2024-02-23T07:53:40;16.80;46.20
9446;DHT22;4761;49.490;10.908;2024-02-23T07:56:07;16.80;46.20
9446;DHT22;4761;49.490;10.908;2024-02-23T07:58:33;16.80;46.20
9446;DHT22;4761;49.490;10.908;2024-02-23T08:00:58;16.80;46.10
9446;DHT22;4761;49.490;10.908;2024-02-23T08:03:24;16.80;46.10
9446;DHT22;4761;49.490;10.908;2024-02-23T08:05:49;16.80;46.10
9446;DHT22;4761;49.490;10.908;2024-02-23T08:08:15;16.80;46.10
9446;DHT22;4761;49.490;10.908;2024-02-23T08:10:40;16.80;46.10
9446;DHT22;4761;49.490;10.908;2024-02-23T08:13:06;16.80;46.20
9446;DHT22;4761;49.490;10.908;2024-02-23T08:15:31;16.80;46.20
9446;DHT22;4761;49.490;10.908;2024-02-23T08:17:57;16.80;46.30
9446;DHT22;4761;49.490;10.908;2024-02-23T08:20:22;16.80;46.30
9446;DHT22;4761;49.490;10.908;2024-02-23T08:22:48;16.80;46.30
9446;DHT22;4761;49.490;10.908;2024-02-23T08:25:14;16.80;46.30
9446;DHT22;4761;49.490;10.908;2024-02-23T08:27:40;16.80;46.40
9446;DHT22;4761;49.490;10.908;2024-02-23T08:30:06;16.80;46.40
9446;DHT22;4761;49.490;10.908;2024-02-23T08:32:32;16.80;46.50
9446;DHT22;4761;49.490;10.908;2024-02-23T08:34:58;16.80;46.50
9446;DHT22;4761;49.490;10.908;2024-02-23T08:37:25;16.80;46.60
9446;DHT22;4761;49.490;10.908;2024-02-23T08:39:51;16.80;46.70
9446;DHT22;4761;49.490;10.908;2024-02-23T08:42:16;16.80;46.80
9446;DHT22;4761;49.490;10.908;2024-02-23T08:44:42;16.80;46.80
9446;DHT22;4761;49.490;10.908;2024-02-23T08:47:07;16.80;46.80
9446;DHT22;4761;49.490;10.908;2024-02-23T08:49:33;16.80;46.90
9446;DHT22;4761;49.490;10.908;2024-02-23T08:51:58;16.80;46.80
9446;DHT22;4761;49.490;10.908;2024-02-23T08:54:24;16.80;46.70
9446;DHT22;4761;49.490;10.908;2024-02-23T08:56:49;16.80;46.60
9446;DHT22;4761;49.490;10.908;2024-02-23T08:59:15;16.80;46.60
9446;DHT22;4761;49.490;10.908;2024-02-23T09:01:40;16.80;46.50
9446;DHT22;4761;49.490;10.908;2024-02-23T09:04:06;16.80;46.50
9446;DHT22;4761;49.490;10.908;2024-02-23T09:06:32;16.80;46.50
9446;DHT22;4761;49.490;10.908;2024-02-23T09:08:58;16.80;46.60
9446;DHT22;4761;49.490;10.908;2024-02-23T09:11:24;16.80;46.70
9446;DHT22;4761;49.490;10.908;2024-02-23T09:13:49;16.80;46.70
9446;DHT22;4761;49.490;10.908;2024-02-23T09:16:15;16.80;46.70
9446;DHT22;4761;49.490;10.908;2024-02-23T09:18:41;16.80;46.70
9446;DHT22;4761;49.490;10.908;2024-02-23T09:21:06;16.80;46.70
9446;DHT22;4761;49.490;10.908;2024-02-23T09:23:32;16.80;46.70
9446;DHT22;4761;49.490;10.908;2024-02-23T09:25:59;16.80;46.60
9446;DHT22;4761;49.490;10.908;2024-02-23T09:28:24;16.80;46.50
9446;DHT22;4761;49.490;10.908;2024-02-23T09:30:50;16.80;46.50
9446;DHT22;4761;49.490;10.908;2024-02-23T09:33:15;16.80;46.50
9446;DHT22;4761;49.490;10.908;2024-02-23T09:35:41;16.80;46.50
9446;DHT22;4761;49.490;10.908;2024-02-23T09:38:06;16.80;46.50
9446;DHT22;4761;49.490;10.908;2024-02-23T09:40:32;16.80;46.50
9446;DHT22;4761;49.490;10.908;2024-02-23T09:42:58;16.70;46.50
9446;DHT22;4761;49.490;10.908;2024-02-23T09:45:25;16.80;46.80
9446;DHT22;4761;49.490;10.908;2024-02-23T09:47:53;16.80;46.70
9446;DHT22;4761;49.490;10.908;2024-02-23T09:50:22;16.80;46.70
9446;DHT22;4761;49.490;10.908;2024-02-23T09:52:48;16.80;46.60
9446;DHT22;4761;49.490;10.908;2024-02-23T09:55:16;16.80;46.50
9446;DHT22;4761;49.490;10.908;2024-02-23T09:57:42;16.80;46.30
9446;DHT22;4761;49.490;10.908;2024-02-23T10:00:08;16.80;46.20
9446;DHT22;4761;49.490;10.908;2024-02-23T10:02:34;16.80;46.20
9446;DHT22;4761;49.490;10.908;2024-02-23T10:05:01;16.80;46.10
9446;DHT22;4761;49.490;10.908;2024-02-23T10:07:28;16.80;46.10
9446;DHT22;4761;49.490;10.908;2024-02-23T10:09:53;16.80;45.90
9446;DHT22;4761;49.490;10.908;2024-02-23T10:12:20;16.80;45.90
9446;DHT22;4761;49.490;10.908;2024-02-23T10:14:46;16.80;45.90
9446;DHT22;4761;49.490;10.908;2024-02-23T10:17:11;16.80;45.90
9446;DHT22;4761;49.490;10.908;2024-02-23T10:19:38;16.80;45.80
9446;DHT22;4761;49.490;10.908;2024-02-23T10:22:04;16.80;45.70
9446;DHT22;4761;49.490;10.908;2024-02-23T10:24:30;16.80;45.70
9446;DHT22;4761;49.490;10.908;2024-02-23T10:26:55;16.80;45.80
9446;DHT22;4761;49.490;10.908;2024-02-23T10:29:21;16.80;45.80
9446;DHT22;4761;49.490;10.908;2024-02-23T10:31:47;16.80;45.80
9446;DHT22;4761;49.490;10.908;2024-02-23T10:34:18;16.80;45.80
9446;DHT22;4761;49.490;10.908;2024-02-23T10:36:44;16.80;45.80
9446;DHT22;4761;49.490;10.908;2024-02-23T10:39:16;16.80;45.80
9446;DHT22;4761;49.490;10.908;2024-02-23T10:41:47;16.80;45.70
9446;DHT22;4761;49.490;10.908;2024-02-23T10:44:17;16.80;45.60
9446;DHT22;4761;49.490;10.908;2024-02-23T10:46:44;16.80;45.50
9446;DHT22;4761;49.490;10.908;2024-02-23T10:49:11;16.80;45.50
9446;DHT22;4761;49.490;10.908;2024-02-23T10:51:39;16.80;45.40
9446;DHT22;4761;49.490;10.908;2024-02-23T10:54:06;16.80;45.40
9446;DHT22;4761;49.490;10.908;2024-02-23T10:56:31;16.80;45.40
9446;DHT22;4761;49.490;10.908;2024-02-23T10:58:57;16.80;45.50
9446;DHT22;4761;49.490;10.908;2024-02-23T11:01:24;16.80;45.50
9446;DHT22;4761;49.490;10.908;2024-02-23T11:03:51;16.80;45.50
9446;DHT22;4761;49.490;10.908;2024-02-23T11:06:17;16.70;45.30
9446;DHT22;4761;49.490;10.908;2024-02-23T11:08:47;16.80;45.30
9446;DHT22;4761;49.490;10.908;2024-02-23T11:11:15;16.80;45.20
9446;DHT22;4761;49.490;10.908;2024-02-23T11:13:43;16.80;45.20
9446;DHT22;4761;49.490;10.908;2024-02-23T11:16:09;16.80;45.20
9446;DHT22;4761;49.490;10.908;2024-02-23T11:18:35;16.80;45.20
9446;DHT22;4761;49.490;10.908;2024-02-23T11:21:05;16.80;45.20
9446;DHT22;4761;49.490;10.908;2024-02-23T11:23:48;16.80;45.20
9446;DHT22;4761;49.490;10.908;2024-02-23T11:26:15;16.80;45.20
9446;DHT22;4761;49.490;10.908;2024-02-23T11:28:48;16.80;45.20
9446;DHT22;4761;49.490;10.908;2024-02-23T11:31:16;16.80;45.20
9446;DHT22;4761;49.490;10.908;2024-02-23T11:33:54;16.80;45.10
9446;DHT22;4761;49.490;10.908;2024-02-23T11:36:31;16.80;45.20
9446;DHT22;4761;49.490;10.908;2024-02-23T11:38:58;16.80;45.10
9446;DHT22;4761;49.490;10.908;2024-02-23T11:41:25;16.80;45.10
9446;DHT22;4761;49.490;10.908;2024-02-23T11:43:52;16.80;45.10
9446;DHT22;4761;49.490;10.908;2024-02-23T11:46:19;16.80;45.20
9446;DHT22;4761;49.490;10.908;2024-02-23T11:48:45;16.80;45.20
9446;DHT22;4761;49.490;10.908;2024-02-23T11:51:13;16.80;45.20
9446;DHT22;4761;49.490;10.908;2024-02-23T11:53:39;16.80;45.10
9446;DHT22;4761;49.490;10.908;2024-02-23T11:56:05;16.80;45.20
9446;DHT22;4761;49.490;10.908;2024-02-23T11:58:32;16.80;45.20
9446;DHT22;4761;49.490;10.908;2024-02-23T12:00:59;16.80;45.20
9446;DHT22;4761;49.490;10.908;2024-02-23T12:03:26;16.80;45.20
9446;DHT22;4761;49.490;10.908;2024-02-23T12:05:52;16.80;45.20
9446;DHT22;4761;49.490;10.908;2024-02-23T12:08:17;16.80;45.10
9446;DHT22;4761;49.490;10.908;2024-02-23T12:10:44;16.80;45.70
9446;DHT22;4761;49.490;10.908;2024-02-23T12:13:10;16.80;45.10
9446;DHT22;4761;49.490;10.908;2024-02-23T12:15:35;16.80;45.10
9446;DHT22;4761;49.490;10.908;2024-02-23T12:18:03;16.80;44.90
9446;DHT22;4761;49.490;10.908;2024-02-23T12:20:33;16.80;44.90
9446;DHT22;4761;49.490;10.908;2024-02-23T12:23:00;16.80;44.90
9446;DHT22;4761;49.490;10.908;2024-02-23T12:25:26;16.80;44.80
9446;DHT22;4761;49.490;10.908;2024-02-23T12:27:56;16.80;44.90
9446;DHT22;4761;49.490;10.908;2024-02-23T12:30:22;16.80;44.90
9446;DHT22;4761;49.490;10.908;2024-02-23T12:32:47;16.80;45.00
9446;DHT22;4761;49.490;10.908;2024-02-23T12:35:14;16.80;45.00
9446;DHT22;4761;49.490;10.908;2024-02-23T12:37:40;16.80;45.00
9446;DHT22;4761;49.490;10.908;2024-02-23T12:40:07;16.80;45.00
9446;DHT22;4761;49.490;10.908;2024-02-23T12:42:34;16.80;45.00
9446;DHT22;4761;49.490;10.908;2024-02-23T12:45:00;16.80;45.10
9446;DHT22;4761;49.490;10.908;2024-02-23T12:47:26;16.80;45.10
9446;DHT22;4761;49.490;10.908;2024-02-23T12:49:51;16.80;45.00
9446;DHT22;4761;49.490;10.908;2024-02-23T12:52:17;16.80;45.00
9446;DHT22;4761;49.490;10.908;2024-02-23T12:54:42;16.80;45.00
9446;DHT22;4761;49.490;10.908;2024-02-23T12:57:08;16.80;44.90
9446;DHT22;4761;49.490;10.908;2024-02-23T12:59:34;16.80;44.80
9446;DHT22;4761;49.490;10.908;2024-02-23T13:01:59;16.80;44.80
9446;DHT22;4761;49.490;10.908;2024-02-23T13:04:25;16.80;44.70
9446;DHT22;4761;49.490;10.908;2024-02-23T13:06:50;16.80;44.70
9446;DHT22;4761;49.490;10.908;2024-02-23T13:09:16;16.80;44.60
9446;DHT22;4761;49.490;10.908;2024-02-23T13:11:41;16.80;44.50
9446;DHT22;4761;49.490;10.908;2024-02-23T13:14:08;16.80;44.50
9446;DHT22;4761;49.490;10.908;2024-02-23T13:16:34;16.80;44.50
9446;DHT22;4761;49.490;10.908;2024-02-23T13:19:00;16.70;44.40
9446;DHT22;4761;49.490;10.908;2024-02-23T13:21:25;16.80;44.40
9446;DHT22;4761;49.490;10.908;2024-02-23T13:23:51;16.80;44.40
9446;DHT22;4761;49.490;10.908;2024-02-23T13:26:16;16.80;44.40
9446;DHT22;4761;49.490;10.908;2024-02-23T13:28:43;16.80;44.40
9446;DHT22;4761;49.490;10.908;2024-02-23T13:31:09;16.70;44.30
9446;DHT22;4761;49.490;10.908;2024-02-23T13:33:35;16.80;44.40
9446;DHT22;4761;49.490;10.908;2024-02-23T13:36:00;16.80;44.30
9446;DHT22;4761;49.490;10.908;2024-02-23T13:38:26;16.80;44.90
9446;DHT22;4761;49.490;10.908;2024-02-23T13:40:51;16.80;44.20
9446;DHT22;4761;49.490;10.908;2024-02-23T13:43:17;16.80;44.20
9446;DHT22;4761;49.490;10.908;2024-02-23T13:45:50;16.80;44.10
9446;DHT22;4761;49.490;10.908;2024-02-23T13:48:16;16.80;44.10
9446;DHT22;4761;49.490;10.908;2024-02-23T13:50:44;16.80;44.20
9446;DHT22;4761;49.490;10.908;2024-02-23T13:53:11;16.80;44.20
9446;DHT22;4761;49.490;10.908;2024-02-23T13:55:37;16.80;44.20
9446;DHT22;4761;49.490;10.908;2024-02-23T13:58:03;16.80;44.10
9446;DHT22;4761;49.490;10.908;2024-02-23T14:00:28;16.80;44.10
9446;DHT22;4761;49.490;10.908;2024-02-23T14:02:54;16.70;44.00
9446;DHT22;4761;49.490;10.908;2024-02-23T14:05:19;16.80;44.00
9446;DHT22;4761;49.490;10.908;2024-02-23T14:07:47;16.80;43.90
9446;DHT22;4761;49.490;10.908;2024-02-23T14:10:13;16.80;44.00
9446;DHT22;4761;49.490;10.908;2024-02-23T14:12:39;16.80;44.00
9446;DHT22;4761;49.490;10.908;2024-02-23T14:15:05;16.80;44.00
9446;DHT22;4761;49.490;10.908;2024-02-23T14:17:31;16.80;44.10
9446;DHT22;4761;49.490;10.908;2024-02-23T14:19:56;16.80;44.10
9446;DHT22;4761;49.490;10.908;2024-02-23T14:22:22;16.80;44.20
9446;DHT22;4761;49.490;10.908;2024-02-23T14:24:47;16.80;44.20
9446;DHT22;4761;49.490;10.908;2024-02-23T14:27:13;16.80;44.30
9446;DHT22;4761;49.490;10.908;2024-02-23T14:29:38;16.80;44.30
9446;DHT22;4761;49.490;10.908;2024-02-23T14:32:04;16.80;44.20
9446;DHT22;4761;49.490;10.908;2024-02-23T14:34:30;16.80;44.20
9446;DHT22;4761;49.490;10.908;2024-02-23T14:36:58;16.80;44.30
9446;DHT22;4761;49.490;10.908;2024-02-23T14:39:24;16.80;44.30
9446;DHT22;4761;49.490;10.908;2024-02-23T14:41:49;16.70;44.30
9446;DHT22;4761;49.490;10.908;2024-02-23T14:44:15;16.80;44.40
9446;DHT22;4761;49.490;10.908;2024-02-23T14:46:40;16.80;44.50
9446;DHT22;4761;49.490;10.908;2024-02-23T14:49:07;16.80;44.50
9446;DHT22;4761;49.490;10.908;2024-02-23T14:51:32;16.70;44.40
9446;DHT22;4761;49.490;10.908;2024-02-23T14:53:59;16.80;44.50
9446;DHT22;4761;49.490;10.908;2024-02-23T14:56:27;16.80;44.50
9446;DHT22;4761;49.490;10.908;2024-02-23T14:58:53;16.70;44.40
9446;DHT22;4761;49.490;10.908;2024-02-23T15:01:18;16.80;44.60
9446;DHT22;4761;49.490;10.908;2024-02-23T15:03:44;16.80;44.60
9446;DHT22;4761;49.490;10.908;2024-02-23T15:06:09;16.80;44.60
9446;DHT22;4761;49.490;10.908;2024-02-23T15:08:36;16.80;44.60
9446;DHT22;4761;49.490;10.908;2024-02-23T15:11:02;16.80;44.60
9446;DHT22;4761;49.490;10.908;2024-02-23T15:13:27;16.80;44.60
9446;DHT22;4761;49.490;10.908;2024-02-23T15:15:53;16.80;44.50
9446;DHT22;4761;49.490;10.908;2024-02-23T15:18:19;16.80;44.40
9446;DHT22;4761;49.490;10.908;2024-02-23T15:20:45;16.80;44.30
9446;DHT22;4761;49.490;10.908;2024-02-23T15:23:12;16.80;44.20
9446;DHT22;4761;49.490;10.908;2024-02-23T15:25:38;16.80;44.20
9446;DHT22;4761;49.490;10.908;2024-02-23T15:28:04;16.80;44.20
9446;DHT22;4761;49.490;10.908;2024-02-23T15:30:30;16.80;44.20
9446;DHT22;4761;49.490;10.908;2024-02-23T15:32:55;16.80;44.20
9446;DHT22;4761;49.490;10.908;2024-02-23T15:35:21;16.80;44.20
9446;DHT22;4761;49.490;10.908;2024-02-23T15:37:46;16.80;44.20